Time;durP1;ratioP1;P1;durP2;ratioP2;P2;SDS_P1;SDS_P2;PMS_P1;PMS_P2;Temp;Humidity;BMP_temperature;BMP_pressure;BME280_temperature;BME280_humidity;BME280_pressure;Samples;Min_cycle;Max_cycle;Signal;HPM_P1;HPM_P2
2022/05/21 00:01:34;;;;;;;;;4.00;4.00;;;;;;;;5056660;28;45419;-72
2022/05/21 00:03:59;;;;;;;;;5.33;5.00;;;;;;;;5056159;28;46743;-72
2022/05/21 00:06:24;;;;;;;;;3.00;3.00;;;;;;;;5056327;28;45470;-72
2022/05/21 00:08:50;;;;;;;;;3.33;3.33;;;;;;;;5057302;28;45309;-72
2022/05/21 00:11:16;;;;;;;;;8.00;4.00;;;;;;;;5058040;28;45308;-72
2022/05/21 00:13:41;;;;;;;;;4.67;4.67;;;;;;;;5059064;28;45754;-72
2022/05/21 00:16:06;;;;;;;;;7.00;5.67;;;;;;;;5054595;28;46038;-72
2022/05/21 00:18:32;;;;;;;;;5.00;5.00;;;;;;;;5058259;28;45165;-72
2022/05/21 00:20:57;;;;;;;;;6.67;6.00;;;;;;;;5054499;28;47327;-72
2022/05/21 00:23:30;;;;;;;;;7.33;6.00;;;;;;;;5056561;28;46044;-72
2022/05/21 00:25:57;;;;;;;;;5.00;5.00;;;;;;;;5055532;28;45231;-72
2022/05/21 00:28:23;;;;;;;;;5.33;5.00;;;;;;;;5058206;28;45392;-72
2022/05/21 00:30:49;;;;;;;;;10.00;8.00;;;;;;;;5055947;28;45574;-73
2022/05/21 00:33:15;;;;;;;;;7.00;6.00;;;;;;;;5057865;28;45501;-73
2022/05/21 00:35:40;;;;;;;;;5.00;5.00;;;;;;;;5055763;28;45432;-72
2022/05/21 00:38:06;;;;;;;;;6.00;5.00;;;;;;;;5057991;28;45510;-72
2022/05/21 00:40:31;;;;;;;;;5.33;5.00;;;;;;;;5055781;28;45471;-72
2022/05/21 00:42:56;;;;;;;;;1.33;1.33;;;;;;;;5077678;27;47001;-72
2022/05/21 00:45:22;;;;;;;;;7.00;6.67;;;;;;;;5050868;28;45438;-72
2022/05/21 00:47:47;;;;;;;;;6.67;5.00;;;;;;;;5057933;28;46070;-72
2022/05/21 00:50:14;;;;;;;;;7.67;4.00;;;;;;;;5056451;28;46474;-72
2022/05/21 00:52:39;;;;;;;;;5.67;5.67;;;;;;;;5060149;28;45348;-72
2022/05/21 00:55:26;;;;;;;;;4.00;4.00;;;;;;;;5052027;28;45340;-72
2022/05/21 01:00:47;;;;;;;;;7.00;5.33;;;;;;;;5058285;28;45643;-72
2022/05/21 01:03:14;;;;;;;;;6.00;6.00;;;;;;;;5059731;28;47103;-73
2022/05/21 01:05:40;;;;;;;;;4.00;4.00;;;;;;;;5058898;28;46489;-72
2022/05/21 01:08:05;;;;;;;;;6.67;5.67;;;;;;;;5060813;28;45399;-72
2022/05/21 01:10:35;;;;;;;;;4.00;4.00;;;;;;;;5058890;28;45489;-72
2022/05/21 01:13:02;;;;;;;;;8.33;5.00;;;;;;;;5059559;28;47233;-72
2022/05/21 01:15:33;;;;;;;;;5.00;5.00;;;;;;;;5058884;28;45697;-72
2022/05/21 01:17:58;;;;;;;;;5.00;5.00;;;;;;;;5060730;28;45357;-72
2022/05/21 01:20:33;;;;;;;;;8.00;6.00;;;;;;;;5058711;28;45262;-72
2022/05/21 01:22:58;;;;;;;;;6.67;6.67;;;;;;;;5060534;28;45457;-72
2022/05/21 01:25:24;;;;;;;;;5.00;5.00;;;;;;;;5057137;28;45357;-71
2022/05/21 01:27:51;;;;;;;;;7.00;5.33;;;;;;;;5079544;27;45466;-72
2022/05/21 01:30:18;;;;;;;;;5.00;5.00;;;;;;;;5062867;28;45383;-72
2022/05/21 01:32:45;;;;;;;;;8.00;6.00;;;;;;;;5062537;28;46376;-72
2022/05/21 01:35:10;;;;;;;;;5.33;5.33;;;;;;;;5058583;28;45438;-72
2022/05/21 01:37:36;;;;;;;;;5.00;5.00;;;;;;;;5060465;28;45605;-72
2022/05/21 01:40:01;;;;;;;;;5.67;5.00;;;;;;;;5058633;28;45511;-71
2022/05/21 01:42:26;;;;;;;;;6.67;5.67;;;;;;;;5057612;28;45357;-72
2022/05/21 01:44:52;;;;;;;;;7.00;6.00;;;;;;;;5058509;28;45446;-72
2022/05/21 01:47:18;;;;;;;;;9.00;5.00;;;;;;;;5059208;28;45314;-72
2022/05/21 01:49:43;;;;;;;;;6.00;5.00;;;;;;;;5058348;28;45457;-72
2022/05/21 01:52:09;;;;;;;;;4.00;4.00;;;;;;;;5059744;28;45320;-72
2022/05/21 01:54:35;;;;;;;;;6.67;5.00;;;;;;;;5057267;28;45824;-71
2022/05/21 01:57:00;;;;;;;;;6.33;5.33;;;;;;;;5055213;28;45344;-72
2022/05/21 01:59:26;;;;;;;;;5.00;5.00;;;;;;;;5058075;28;45173;-72
2022/05/21 02:01:51;;;;;;;;;5.00;3.67;;;;;;;;5060172;28;45343;-71
2022/05/21 02:04:17;;;;;;;;;4.00;4.00;;;;;;;;5058293;28;45260;-72
2022/05/21 02:06:42;;;;;;;;;4.67;4.67;;;;;;;;5084540;27;45426;-72
2022/05/21 02:09:08;;;;;;;;;5.00;4.00;;;;;;;;5061177;28;45220;-72
2022/05/21 02:11:33;;;;;;;;;5.00;4.33;;;;;;;;5062834;28;47996;-72
2022/05/21 02:13:58;;;;;;;;;4.00;4.00;;;;;;;;5059061;28;45352;-72
2022/05/21 02:16:23;;;;;;;;;7.67;4.67;;;;;;;;5057066;28;45348;-72
2022/05/21 02:18:49;;;;;;;;;5.67;4.33;;;;;;;;5059225;28;45348;-72
2022/05/21 02:21:14;;;;;;;;;4.33;4.33;;;;;;;;5058400;28;45475;-71
2022/05/21 02:23:39;;;;;;;;;3.33;3.33;;;;;;;;5059737;28;45503;-72
2022/05/21 02:26:04;;;;;;;;;6.33;5.00;;;;;;;;5056656;28;45465;-72
2022/05/21 02:28:29;;;;;;;;;5.00;5.00;;;;;;;;5059898;28;45445;-72
2022/05/21 02:30:55;;;;;;;;;4.00;4.00;;;;;;;;5057907;28;45409;-72
2022/05/21 02:33:21;;;;;;;;;4.67;4.00;;;;;;;;5059794;28;45343;-72
2022/05/21 02:35:46;;;;;;;;;4.00;4.00;;;;;;;;5055735;28;45505;-72
2022/05/21 02:40:55;;;;;;;;;6.00;3.67;;;;;;;;5057633;28;45501;-72
2022/05/21 02:43:20;;;;;;;;;5.00;3.00;;;;;;;;5052217;28;45494;-72
2022/05/21 02:45:46;;;;;;;;;8.00;4.33;;;;;;;;5078937;27;45482;-71
2022/05/21 02:48:11;;;;;;;;;4.67;3.00;;;;;;;;5062562;28;45575;-72
2022/05/21 02:50:36;;;;;;;;;4.00;4.00;;;;;;;;5060254;28;46817;-72
2022/05/21 02:53:03;;;;;;;;;4.67;4.67;;;;;;;;5059543;28;45446;-72
2022/05/21 02:55:29;;;;;;;;;4.33;4.00;;;;;;;;5055387;28;45469;-72
2022/05/21 02:57:55;;;;;;;;;3.00;3.00;;;;;;;;5059289;28;45312;-71
2022/05/21 03:00:23;;;;;;;;;4.67;4.33;;;;;;;;5078745;27;47327;-72
2022/05/21 03:02:48;;;;;;;;;4.67;4.67;;;;;;;;5080694;27;46012;-72
2022/05/21 03:05:13;;;;;;;;;4.00;4.00;;;;;;;;5049112;28;45452;-72
2022/05/21 03:07:46;;;;;;;;;5.33;4.00;;;;;;;;5077073;27;45915;-72
2022/05/21 03:10:21;;;;;;;;;9.00;4.00;;;;;;;;5081795;27;48402;-72
2022/05/21 03:12:54;;;;;;;;;6.67;4.33;;;;;;;;5081427;27;45311;-72
2022/05/21 03:15:21;;;;;;;;;3.67;3.67;;;;;;;;5052363;28;45443;-72
2022/05/21 03:17:46;;;;;;;;;4.33;4.33;;;;;;;;5057465;28;46274;-72
2022/05/21 03:20:15;;;;;;;;;7.00;6.00;;;;;;;;5055817;28;45238;-72
2022/05/21 03:22:41;;;;;;;;;4.67;3.67;;;;;;;;5059027;28;45792;-71
2022/05/21 03:25:07;;;;;;;;;3.67;3.67;;;;;;;;5057908;28;45373;-71
2022/05/21 03:27:32;;;;;;;;;4.00;4.00;;;;;;;;5061505;28;46003;-71
2022/05/21 03:29:58;;;;;;;;;5.67;3.00;;;;;;;;5052066;28;45584;-71
2022/05/21 03:32:23;;;;;;;;;4.00;4.00;;;;;;;;5058802;28;45458;-71
2022/05/21 03:34:48;;;;;;;;;6.00;4.33;;;;;;;;5089070;27;45958;-72
2022/05/21 03:37:13;;;;;;;;;5.00;3.67;;;;;;;;5058336;28;45723;-72
2022/05/21 03:39:39;;;;;;;;;5.00;5.00;;;;;;;;5054648;28;45274;-71
2022/05/21 03:42:05;;;;;;;;;3.33;3.33;;;;;;;;5058531;28;45351;-72
2022/05/21 03:44:30;;;;;;;;;5.00;3.00;;;;;;;;5056743;28;45300;-71
2022/05/21 03:46:56;;;;;;;;;6.00;4.67;;;;;;;;5058306;28;45498;-72
2022/05/21 03:49:23;;;;;;;;;6.00;3.33;;;;;;;;5054905;28;47122;-72
2022/05/21 03:51:48;;;;;;;;;6.00;4.67;;;;;;;;5056656;28;46058;-72
2022/05/21 03:54:13;;;;;;;;;4.00;3.67;;;;;;;;5056674;28;45213;-72
2022/05/21 03:56:39;;;;;;;;;3.67;3.00;;;;;;;;5080546;27;47311;-71
2022/05/21 03:59:04;;;;;;;;;5.67;3.67;;;;;;;;5039211;28;46147;-72
2022/05/21 04:01:29;;;;;;;;;4.67;4.00;;;;;;;;5056610;28;45229;-72
2022/05/21 04:03:56;;;;;;;;;3.33;3.33;;;;;;;;5038927;28;45335;-72
2022/05/21 04:06:21;;;;;;;;;7.67;4.33;;;;;;;;5060344;28;45331;-71
2022/05/21 04:08:47;;;;;;;;;2.00;2.00;;;;;;;;5061708;28;45394;-73
2022/05/21 04:11:12;;;;;;;;;3.00;3.00;;;;;;;;5055558;28;45315;-72
2022/05/21 04:13:38;;;;;;;;;5.00;3.00;;;;;;;;5039913;28;45374;-71
2022/05/21 04:16:03;;;;;;;;;3.00;3.00;;;;;;;;5054755;28;45316;-72
2022/05/21 04:18:29;;;;;;;;;3.00;3.00;;;;;;;;5056627;28;48331;-71
2022/05/21 04:20:54;;;;;;;;;5.33;2.67;;;;;;;;5055973;28;45316;-71
2022/05/21 04:23:19;;;;;;;;;4.67;4.00;;;;;;;;5058097;28;45433;-71
2022/05/21 04:25:46;;;;;;;;;4.33;3.00;;;;;;;;5054442;28;45529;-72
2022/05/21 04:28:11;;;;;;;;;3.00;3.00;;;;;;;;5056668;28;47687;-72
2022/05/21 04:30:36;;;;;;;;;3.67;3.00;;;;;;;;5055954;28;45276;-72
2022/05/21 04:33:01;;;;;;;;;4.00;4.00;;;;;;;;5060086;28;45237;-72
2022/05/21 04:38:11;;;;;;;;;4.00;2.33;;;;;;;;5060921;28;45207;-72
2022/05/21 04:40:36;;;;;;;;;3.67;3.67;;;;;;;;5085428;27;45793;-72
2022/05/21 04:43:02;;;;;;;;;2.00;2.00;;;;;;;;5061878;28;45263;-72
2022/05/21 04:45:27;;;;;;;;;4.00;2.00;;;;;;;;5060515;28;45916;-71
2022/05/21 04:47:52;;;;;;;;;3.67;3.67;;;;;;;;5063631;28;45364;-72
2022/05/21 04:50:17;;;;;;;;;4.00;4.00;;;;;;;;5057600;28;45384;-72
2022/05/21 04:52:43;;;;;;;;;4.00;3.33;;;;;;;;5061274;28;45573;-71
2022/05/21 04:55:08;;;;;;;;;4.33;3.00;;;;;;;;5059445;28;45160;-72
2022/05/21 04:57:33;;;;;;;;;4.00;4.00;;;;;;;;5061067;28;45335;-71
2022/05/21 04:59:59;;;;;;;;;4.00;2.67;;;;;;;;5058892;28;46331;-72
2022/05/21 05:02:24;;;;;;;;;5.33;5.00;;;;;;;;5060131;28;45611;-72
2022/05/21 05:04:49;;;;;;;;;6.67;6.67;;;;;;;;5056807;28;47968;-72
2022/05/21 05:07:17;;;;;;;;;7.00;7.00;;;;;;;;5080338;27;47001;-71
2022/05/21 05:09:43;;;;;;;;;10.33;6.00;;;;;;;;5049150;28;45423;-70
2022/05/21 05:12:09;;;;;;;;;10.00;5.00;;;;;;;;5061140;28;45422;-72
2022/05/21 05:14:35;;;;;;;;;6.00;6.00;;;;;;;;5057484;28;46190;-72
2022/05/21 05:17:01;;;;;;;;;5.67;5.67;;;;;;;;5060814;28;45439;-72
2022/05/21 05:19:29;;;;;;;;;7.33;7.33;;;;;;;;5058796;28;45234;-72
2022/05/21 05:21:54;;;;;;;;;7.67;6.33;;;;;;;;5059512;28;45256;-72
2022/05/21 05:24:19;;;;;;;;;7.00;6.00;;;;;;;;5063072;28;45228;-72
2022/05/21 05:26:45;;;;;;;;;5.67;5.00;;;;;;;;5061650;28;48036;-72
2022/05/21 05:29:10;;;;;;;;;6.00;6.00;;;;;;;;5058642;28;45371;-71
2022/05/21 05:31:35;;;;;;;;;4.67;4.67;;;;;;;;5059402;28;45288;-72
2022/05/21 05:34:00;;;;;;;;;8.33;7.00;;;;;;;;5044463;28;46902;-71
2022/05/21 05:36:26;;;;;;;;;8.00;4.67;;;;;;;;5059796;28;45399;-72
2022/05/21 05:38:51;;;;;;;;;5.67;5.00;;;;;;;;5059863;28;45209;-72
2022/05/21 05:41:16;;;;;;;;;3.67;3.67;;;;;;;;5057668;28;45351;-73
2022/05/21 05:43:41;;;;;;;;;5.67;4.67;;;;;;;;5059891;28;45276;-72
2022/05/21 05:46:07;;;;;;;;;7.33;6.00;;;;;;;;5053394;28;47054;-72
2022/05/21 05:48:32;;;;;;;;;5.00;4.00;;;;;;;;5058660;28;45723;-72
2022/05/21 05:50:59;;;;;;;;;3.67;3.67;;;;;;;;5056853;28;45693;-71
2022/05/21 05:53:24;;;;;;;;;5.00;3.33;;;;;;;;5058498;28;45366;-72
2022/05/21 05:55:49;;;;;;;;;6.67;5.00;;;;;;;;5056296;28;47261;-71
2022/05/21 06:00:59;;;;;;;;;5.00;5.00;;;;;;;;5056031;28;45415;-71
2022/05/21 06:03:24;;;;;;;;;5.00;5.00;;;;;;;;5064046;28;45461;-72
2022/05/21 06:05:50;;;;;;;;;6.00;5.00;;;;;;;;5059465;28;45779;-72
2022/05/21 06:08:15;;;;;;;;;3.67;3.67;;;;;;;;5059475;28;45274;-72
2022/05/21 06:10:43;;;;;;;;;3.67;2.00;;;;;;;;5058568;28;45746;-72
2022/05/21 06:13:09;;;;;;;;;4.00;3.00;;;;;;;;5077579;27;46266;-72
2022/05/21 06:15:34;;;;;;;;;4.00;2.67;;;;;;;;5056204;28;48237;-72
2022/05/21 06:18:05;;;;;;;;;4.33;4.33;;;;;;;;5059609;28;45229;-73
2022/05/21 06:20:30;;;;;;;;;4.00;4.00;;;;;;;;5089134;27;45495;-73
2022/05/21 06:22:55;;;;;;;;;4.00;4.00;;;;;;;;5058992;28;45450;-73
2022/05/21 06:25:22;;;;;;;;;3.67;3.33;;;;;;;;5058169;28;45501;-74
2022/05/21 06:27:49;;;;;;;;;5.67;3.67;;;;;;;;5060058;28;45203;-72
2022/05/21 06:30:15;;;;;;;;;8.00;8.00;;;;;;;;5052155;28;45384;-73
2022/05/21 06:32:41;;;;;;;;;8.67;5.33;;;;;;;;5059906;28;45265;-72
2022/05/21 06:35:06;;;;;;;;;6.33;6.33;;;;;;;;5053459;28;46101;-72
2022/05/21 06:37:31;;;;;;;;;6.00;4.33;;;;;;;;5059913;28;45469;-73
2022/05/21 06:39:57;;;;;;;;;4.33;3.33;;;;;;;;5051532;28;45613;-73
2022/05/21 06:42:22;;;;;;;;;4.00;4.00;;;;;;;;5060975;28;45550;-72
2022/05/21 06:44:47;;;;;;;;;3.00;3.00;;;;;;;;5056415;28;48274;-73
2022/05/21 06:47:12;;;;;;;;;4.33;4.33;;;;;;;;5055000;28;45398;-72
2022/05/21 06:49:37;;;;;;;;;7.00;5.67;;;;;;;;5048550;28;45553;-73
2022/05/21 06:52:04;;;;;;;;;4.67;3.00;;;;;;;;5058053;28;45399;-72
2022/05/21 06:54:29;;;;;;;;;6.00;5.00;;;;;;;;5047860;28;47366;-73
2022/05/21 06:56:54;;;;;;;;;5.00;4.00;;;;;;;;5056336;28;45334;-72
2022/05/21 06:59:20;;;;;;;;;5.00;5.00;;;;;;;;5058022;28;45408;-72
2022/05/21 07:01:45;;;;;;;;;5.00;3.00;;;;;;;;5049330;28;45578;-73
2022/05/21 07:04:13;;;;;;;;;3.00;3.00;;;;;;;;5057423;28;46132;-72
2022/05/21 07:09:22;;;;;;;;;4.33;4.33;;;;;;;;5057573;28;45228;-73
2022/05/21 07:11:49;;;;;;;;;4.00;3.67;;;;;;;;5050394;28;45222;-72
2022/05/21 07:14:14;;;;;;;;;3.00;3.00;;;;;;;;5056322;28;48329;-72
2022/05/21 07:16:39;;;;;;;;;3.67;3.00;;;;;;;;5047152;28;45280;-73
2022/05/21 07:19:05;;;;;;;;;2.00;1.67;;;;;;;;5051283;28;45341;-73
2022/05/21 07:21:30;;;;;;;;;4.67;2.00;;;;;;;;5054570;28;45530;-72
2022/05/21 07:23:55;;;;;;;;;2.00;2.00;;;;;;;;5060010;28;48155;-72
2022/05/21 07:26:20;;;;;;;;;1.33;1.33;;;;;;;;5057592;28;45474;-73
2022/05/21 07:28:46;;;;;;;;;2.67;1.33;;;;;;;;5058540;28;45532;-73
2022/05/21 07:31:11;;;;;;;;;1.33;1.33;;;;;;;;5052343;28;45419;-73
2022/05/21 07:33:36;;;;;;;;;3.67;1.00;;;;;;;;5057933;28;48442;-72
2022/05/21 07:36:02;;;;;;;;;1.00;1.00;;;;;;;;5054540;28;45230;-72
2022/05/21 07:38:27;;;;;;;;;2.00;2.00;;;;;;;;5056587;28;45718;-75
2022/05/21 07:40:53;;;;;;;;;2.00;2.00;;;;;;;;5051932;28;47056;-72
2022/05/21 07:43:24;;;;;;;;;1.33;0.67;;;;;;;;5057863;28;45919;-72
2022/05/21 07:45:50;;;;;;;;;0.25;0.25;;;;;;;;5051023;28;45375;-71
2022/05/21 07:48:18;;;;;;;;;2.00;1.00;;;;;;;;5057586;28;45306;-71
2022/05/21 07:50:44;;;;;;;;;0.75;0.75;;;;;;;;5050850;28;47292;-72
2022/05/21 07:53:14;;;;;;;;;1.25;1.25;;;;;;;;5078222;27;47277;-72
2022/05/21 07:55:44;;;;;;;;;2.67;1.33;;;;;;;;5056297;28;45275;-72
2022/05/21 07:58:10;;;;;;;;;1.00;1.00;;;;;;;;5058541;28;45457;-71
2022/05/21 08:00:36;;;;;;;;;1.00;1.00;;;;;;;;5048881;28;46154;-72
2022/05/21 08:03:01;;;;;;;;;0.75;0.75;;;;;;;;5056650;28;45343;-72
2022/05/21 08:05:26;;;;;;;;;2.00;1.25;;;;;;;;5055951;28;45729;-72
2022/05/21 08:07:52;;;;;;;;;1.00;1.00;;;;;;;;5056875;28;44871;-72
2022/05/21 08:10:18;;;;;;;;;1.00;1.00;;;;;;;;5051924;28;47142;-71
2022/05/21 08:12:43;;;;;;;;;0.75;0.75;;;;;;;;5053556;28;45499;-73
2022/05/21 08:15:09;;;;;;;;;0.50;0.50;;;;;;;;5052842;28;45434;-67
2022/05/21 08:17:34;;;;;;;;;0.00;0.00;;;;;;;;5056193;28;45476;-68
2022/05/21 08:19:59;;;;;;;;;0.00;0.00;;;;;;;;5055351;28;45540;-67
2022/05/21 08:27:52;;;;;;;;;0.25;0.25;;;;;;;;5058190;28;45252;-67
2022/05/21 08:30:17;;;;;;;;;2.00;1.00;;;;;;;;5054349;28;45304;-67
2022/05/21 08:32:42;;;;;;;;;1.25;1.00;;;;;;;;5056682;28;45969;-67
2022/05/21 08:35:07;;;;;;;;;1.50;0.00;;;;;;;;5053707;28;45212;-67
2022/05/21 08:37:35;;;;;;;;;1.50;1.00;;;;;;;;5056446;28;45256;-67
2022/05/21 08:40:00;;;;;;;;;0.50;0.50;;;;;;;;5053322;28;46022;-67
2022/05/21 08:42:35;;;;;;;;;1.00;0.00;;;;;;;;5057740;28;47158;-66
2022/05/21 08:45:33;;;;;;;;;0.00;0.00;;;;;;;;5056354;28;45416;-67
2022/05/21 08:47:59;;;;;;;;;0.75;0.75;;;;;;;;5043480;28;45469;-68
2022/05/21 08:50:26;;;;;;;;;0.25;0.25;;;;;;;;5054950;28;45430;-67
2022/05/21 08:53:06;;;;;;;;;2.25;0.50;;;;;;;;5056758;28;45505;-66
2022/05/21 08:55:33;;;;;;;;;1.75;0.50;;;;;;;;5055107;28;45335;-68
2022/05/21 08:58:09;;;;;;;;;0.75;0.75;;;;;;;;5077306;27;45353;-66
2022/05/21 09:00:36;;;;;;;;;1.00;1.00;;;;;;;;5053983;28;45274;-66
2022/05/21 09:03:05;;;;;;;;;2.50;1.00;;;;;;;;5057319;28;46114;-67
2022/05/21 09:05:31;;;;;;;;;0.80;0.80;;;;;;;;5053041;28;45403;-66
2022/05/21 09:08:03;;;;;;;;;0.75;0.75;;;;;;;;5057352;28;45211;-66
2022/05/21 09:10:47;;;;;;;;;0.00;0.00;;;;;;;;5055294;28;45568;-66
2022/05/21 09:13:12;;;;;;;;;0.25;0.00;;;;;;;;5055612;28;46157;-67
2022/05/21 09:18:22;;;;;;;;;1.00;1.00;;;;;;;;5045833;28;45359;-68
2022/05/21 09:20:59;;;;;;;;;2.00;1.00;;;;;;;;5054902;28;45485;-67
2022/05/21 09:23:26;;;;;;;;;0.00;0.00;;;;;;;;5060284;28;46270;-68
2022/05/21 09:26:07;;;;;;;;;0.20;0.20;;;;;;;;5052832;28;45395;-69
2022/05/21 09:28:37;;;;;;;;;1.00;0.80;;;;;;;;5052017;28;45366;-69
2022/05/21 09:31:05;;;;;;;;;0.25;0.25;;;;;;;;5045933;28;47152;-69
2022/05/21 09:33:45;;;;;;;;;1.00;1.00;;;;;;;;5051499;28;45367;-68
2022/05/21 09:36:30;;;;;;;;;2.00;0.60;;;;;;;;5054582;28;45431;-68
2022/05/21 09:38:55;;;;;;;;;3.00;0.80;;;;;;;;5064153;28;45439;-68
2022/05/21 09:41:27;;;;;;;;;1.00;1.00;;;;;;;;5057516;28;45311;-68
2022/05/21 09:46:39;;;;;;;;;1.80;0.80;;;;;;;;5054418;28;45407;-68
2022/05/21 09:49:30;;;;;;;;;2.20;0.80;;;;;;;;5059620;28;45277;-68
2022/05/21 09:51:57;;;;;;;;;1.00;1.00;;;;;;;;5053245;28;45395;-68
2022/05/21 09:54:46;;;;;;;;;1.80;1.80;;;;;;;;5058739;28;45311;-68
2022/05/21 09:57:20;;;;;;;;;2.20;2.20;;;;;;;;5059618;28;45267;-68
2022/05/21 10:00:00;;;;;;;;;2.40;1.80;;;;;;;;5056311;28;45236;-72
2022/05/21 10:02:35;;;;;;;;;1.00;1.00;;;;;;;;5074976;27;46690;-72
2022/05/21 10:05:01;;;;;;;;;2.60;1.00;;;;;;;;5054674;28;46378;-71
2022/05/21 10:13:03;;;;;;;;;3.60;1.60;;;;;;;;5057016;28;45406;-72
2022/05/21 10:15:29;;;;;;;;;2.00;0.20;;;;;;;;5050494;28;45527;-72
2022/05/21 10:18:10;;;;;;;;;13.00;13.00;;;;;;;;5058954;28;45309;-71
2022/05/21 10:20:38;;;;;;;;;2.80;2.80;;;;;;;;5054781;28;45277;-72
2022/05/21 10:23:03;;;;;;;;;3.40;1.00;;;;;;;;5060205;28;45348;-72
2022/05/21 10:25:51;;;;;;;;;2.00;2.00;;;;;;;;5048193;28;46654;-72
2022/05/21 10:28:38;;;;;;;;;4.80;4.60;;;;;;;;5049891;28;45522;-72
2022/05/21 10:31:08;;;;;;;;;0.20;0.20;;;;;;;;5053692;28;45564;-72
2022/05/21 10:33:53;;;;;;;;;2.00;2.00;;;;;;;;5052160;28;45521;-71
2022/05/21 10:36:35;;;;;;;;;2.80;1.80;;;;;;;;5053068;28;46097;-71
2022/05/21 10:39:18;;;;;;;;;1.40;1.00;;;;;;;;5046697;28;45419;-69
2022/05/21 10:41:50;;;;;;;;;1.80;1.20;;;;;;;;5053679;28;45379;-72
2022/05/21 10:44:21;;;;;;;;;4.20;1.20;;;;;;;;5046712;28;45526;-71
2022/05/21 10:47:02;;;;;;;;;2.40;2.40;;;;;;;;5055227;28;45412;-73
2022/05/21 10:49:33;;;;;;;;;3.00;1.60;;;;;;;;5053984;28;45406;-71
2022/05/21 10:52:09;;;;;;;;;4.00;3.20;;;;;;;;5059850;28;45386;-71
2022/05/21 10:54:44;;;;;;;;;2.20;2.20;;;;;;;;5055646;28;45423;-71
2022/05/21 10:57:29;;;;;;;;;1.00;0.80;;;;;;;;5059183;28;45655;-71
2022/05/21 11:00:03;;;;;;;;;5.20;2.80;;;;;;;;5056551;28;45541;-71
2022/05/21 11:02:31;;;;;;;;;3.00;2.20;;;;;;;;5058083;28;45416;-71
2022/05/21 11:04:57;;;;;;;;;2.20;2.20;;;;;;;;5056547;28;45513;-71
2022/05/21 11:07:41;;;;;;;;;2.75;2.00;;;;;;;;5057893;28;45286;-70
2022/05/21 11:10:06;;;;;;;;;9.20;5.40;;;;;;;;5051631;28;45467;-71
2022/05/21 11:12:34;;;;;;;;;18.00;17.75;;;;;;;;5058154;28;45442;-70
2022/05/21 11:15:12;;;;;;;;;8.80;5.20;;;;;;;;5052902;28;45332;-71
2022/05/21 11:17:37;;;;;;;;;3.00;3.00;;;;;;;;5044450;28;46579;-71
2022/05/21 11:20:14;;;;;;;;;4.50;4.50;;;;;;;;5048858;28;45516;-72
2022/05/21 11:22:58;;;;;;;;;2.00;2.00;;;;;;;;5058863;28;45256;-72
2022/05/21 11:25:28;;;;;;;;;2.40;2.00;;;;;;;;5051345;28;45626;-72
2022/05/21 11:27:54;;;;;;;;;3.20;1.60;;;;;;;;5059147;28;45516;-72
2022/05/21 11:30:20;;;;;;;;;7.50;2.75;;;;;;;;5053172;28;45740;-71
2022/05/21 11:38:46;;;;;;;;;1.20;1.20;;;;;;;;5024026;28;45423;-71
2022/05/21 11:41:25;;;;;;;;;2.20;2.20;;;;;;;;5050382;28;45356;-71
2022/05/21 11:46:50;;;;;;;;;1.40;1.40;;;;;;;;5053613;28;45301;-71
2022/05/21 11:49:35;;;;;;;;;1.40;1.40;;;;;;;;5056529;28;46037;-71
2022/05/21 11:52:20;;;;;;;;;3.60;3.00;;;;;;;;5051296;28;46837;-71
2022/05/21 11:54:45;;;;;;;;;2.80;1.20;;;;;;;;5052625;28;45993;-71
2022/05/21 11:57:11;;;;;;;;;3.00;3.00;;;;;;;;5055866;28;45305;-71
2022/05/21 11:59:50;;;;;;;;;1.60;1.60;;;;;;;;5055503;28;45475;-71
2022/05/21 12:02:26;;;;;;;;;2.00;1.00;;;;;;;;5048515;28;45495;-71
2022/05/21 12:04:56;;;;;;;;;1.40;1.40;;;;;;;;5055886;28;45369;-71
2022/05/21 12:07:40;;;;;;;;;1.40;1.40;;;;;;;;5056183;28;46457;-71
2022/05/21 12:10:09;;;;;;;;;5.40;2.20;;;;;;;;5055502;28;45977;-72
2022/05/21 12:12:55;;;;;;;;;3.20;2.20;;;;;;;;5053868;28;45320;-71
2022/05/21 12:15:32;;;;;;;;;1.00;1.00;;;;;;;;5045000;28;45331;-71
2022/05/21 12:18:03;;;;;;;;;1.80;1.80;;;;;;;;5055112;28;45883;-71
2022/05/21 12:20:48;;;;;;;;;2.20;2.00;;;;;;;;5052420;28;46140;-70
2022/05/21 12:23:38;;;;;;;;;3.00;3.00;;;;;;;;5047363;28;45355;-71
2022/05/21 12:26:04;;;;;;;;;2.20;2.20;;;;;;;;5013503;28;45379;-72
2022/05/21 12:28:33;;;;;;;;;4.60;2.20;;;;;;;;5057320;28;47276;-72
2022/05/21 12:30:59;;;;;;;;;1.20;0.80;;;;;;;;5051870;28;46334;-71
2022/05/21 12:33:31;;;;;;;;;2.00;1.20;;;;;;;;5056213;28;45469;-72
2022/05/21 12:35:59;;;;;;;;;1.20;1.20;;;;;;;;5051831;28;45425;-71
2022/05/21 12:38:29;;;;;;;;;2.00;1.20;;;;;;;;5058393;28;45262;-72
2022/05/21 12:40:54;;;;;;;;;1.00;1.00;;;;;;;;5051532;28;45379;-72
2022/05/21 12:43:19;;;;;;;;;0.75;0.75;;;;;;;;5058360;28;45292;-72
2022/05/21 12:45:48;;;;;;;;;1.50;1.50;;;;;;;;5051721;28;45824;-72
2022/05/21 12:48:22;;;;;;;;;1.20;1.20;;;;;;;;5058445;28;45486;-72
2022/05/21 12:50:49;;;;;;;;;1.40;1.40;;;;;;;;5046449;28;47084;-71
2022/05/21 12:53:19;;;;;;;;;2.20;1.60;;;;;;;;5054807;28;45367;-69
2022/05/21 12:55:44;;;;;;;;;1.80;1.60;;;;;;;;5055501;28;45252;-69
2022/05/21 12:58:09;;;;;;;;;3.25;1.25;;;;;;;;5061242;28;45410;-69
2022/05/21 13:00:36;;;;;;;;;1.25;1.25;;;;;;;;5056717;28;46318;-69
2022/05/21 13:03:09;;;;;;;;;1.20;1.20;;;;;;;;5059179;28;45303;-69
2022/05/21 13:05:36;;;;;;;;;2.80;1.80;;;;;;;;5053103;28;46264;-69
2022/05/21 13:08:03;;;;;;;;;3.00;3.00;;;;;;;;5071193;28;46490;-69
2022/05/21 13:10:33;;;;;;;;;7.80;4.20;;;;;;;;5055501;28;45453;-69
2022/05/21 13:12:58;;;;;;;;;1.00;1.00;;;;;;;;5056835;28;45214;-69
2022/05/21 13:15:44;;;;;;;;;16.00;9.25;;;;;;;;5059370;28;45385;-69
2022/05/21 13:18:12;;;;;;;;;3.40;1.20;;;;;;;;5059697;28;46928;-72
2022/05/21 13:20:40;;;;;;;;;1.20;1.20;;;;;;;;5052962;28;47093;-71
2022/05/21 13:23:12;;;;;;;;;2.00;1.80;;;;;;;;5059312;28;45379;-71
2022/05/21 13:25:39;;;;;;;;;1.00;1.00;;;;;;;;5053314;28;45567;-71
2022/05/21 13:28:12;;;;;;;;;2.00;2.00;;;;;;;;5060504;28;45311;-71
2022/05/21 13:30:41;;;;;;;;;0.60;0.60;;;;;;;;5053885;28;46148;-71
2022/05/21 13:33:13;;;;;;;;;0.20;0.20;;;;;;;;5060921;28;45415;-71
2022/05/21 13:35:40;;;;;;;;;1.80;1.20;;;;;;;;5054582;28;45482;-71
2022/05/21 13:38:06;;;;;;;;;2.20;2.20;;;;;;;;5059629;28;46090;-71
2022/05/21 13:40:44;;;;;;;;;2.00;1.00;;;;;;;;5054272;28;45684;-71
2022/05/21 13:43:11;;;;;;;;;2.00;2.00;;;;;;;;5060920;28;45267;-71
2022/05/21 13:45:38;;;;;;;;;1.80;1.80;;;;;;;;5053996;28;45419;-71
2022/05/21 13:48:09;;;;;;;;;2.00;2.00;;;;;;;;5060844;28;45344;-71
2022/05/21 13:50:35;;;;;;;;;4.40;1.20;;;;;;;;5054419;28;46910;-71
2022/05/21 13:53:02;;;;;;;;;2.00;2.00;;;;;;;;5059361;28;45288;-71
2022/05/21 13:55:27;;;;;;;;;0.00;0.00;;;;;;;;5054471;28;45378;-71
2022/05/21 13:57:53;;;;;;;;;3.00;1.25;;;;;;;;5059674;28;46234;-71
2022/05/21 14:00:21;;;;;;;;;1.00;1.00;;;;;;;;5056082;28;45525;-71
2022/05/21 14:02:51;;;;;;;;;1.20;1.20;;;;;;;;5058626;28;45348;-71
2022/05/21 14:05:28;;;;;;;;;1.20;1.20;;;;;;;;5056681;28;45389;-71
2022/05/21 14:08:13;;;;;;;;;0.40;0.40;;;;;;;;5059365;28;45458;-71
2022/05/21 14:10:44;;;;;;;;;2.00;1.80;;;;;;;;5053516;28;45554;-71
2022/05/21 14:13:28;;;;;;;;;0.80;0.80;;;;;;;;5055658;28;45264;-71
2022/05/21 14:15:54;;;;;;;;;2.20;2.20;;;;;;;;5050312;28;45322;-71
2022/05/21 14:18:32;;;;;;;;;1.80;0.40;;;;;;;;5059139;28;45225;-71
2022/05/21 14:20:59;;;;;;;;;1.60;1.60;;;;;;;;5050917;28;46332;-72
2022/05/21 14:23:30;;;;;;;;;2.80;2.80;;;;;;;;5058955;28;45605;-71
2022/05/21 14:26:11;;;;;;;;;0.80;0.20;;;;;;;;5051033;28;45312;-71
2022/05/21 14:28:38;;;;;;;;;1.00;1.00;;;;;;;;5050616;28;45498;-70
2022/05/21 14:31:19;;;;;;;;;0.40;0.00;;;;;;;;5052123;28;47993;-71
2022/05/21 14:33:54;;;;;;;;;2.60;2.60;;;;;;;;5068056;28;45430;-71
2022/05/21 14:36:27;;;;;;;;;0.80;0.80;;;;;;;;5052675;28;45346;-72
2022/05/21 14:38:52;;;;;;;;;2.40;2.40;;;;;;;;5060108;28;45473;-71
2022/05/21 14:41:37;;;;;;;;;0.50;0.50;;;;;;;;5050405;28;47362;-71
2022/05/21 14:44:04;;;;;;;;;1.00;0.20;;;;;;;;5056143;28;45310;-71
2022/05/21 14:49:13;;;;;;;;;1.20;1.20;;;;;;;;5056796;28;45363;-71
2022/05/21 14:54:28;;;;;;;;;2.00;0.80;;;;;;;;5055802;28;45270;-71
2022/05/21 14:56:54;;;;;;;;;1.00;1.00;;;;;;;;5058273;28;45263;-71
2022/05/21 14:59:19;;;;;;;;;1.25;1.25;;;;;;;;5056280;28;46254;-71
2022/05/21 15:01:45;;;;;;;;;1.25;1.00;;;;;;;;5057006;28;45393;-71
2022/05/21 15:04:11;;;;;;;;;2.25;0.00;;;;;;;;5057504;28;45301;-71
2022/05/21 15:06:38;;;;;;;;;1.40;1.40;;;;;;;;5049445;28;45397;-70
2022/05/21 15:09:04;;;;;;;;;1.60;0.20;;;;;;;;5058940;28;45378;-70
2022/05/21 15:11:30;;;;;;;;;1.00;1.00;;;;;;;;5050103;28;46789;-71
2022/05/21 15:13:55;;;;;;;;;0.25;0.25;;;;;;;;5058468;28;45326;-72
2022/05/21 15:16:21;;;;;;;;;2.75;1.75;;;;;;;;5049549;28;45513;-71
2022/05/21 15:18:46;;;;;;;;;0.00;0.00;;;;;;;;5050229;28;45499;-72
2022/05/21 15:21:27;;;;;;;;;0.25;0.25;;;;;;;;5049215;28;47072;-71
2022/05/21 15:23:52;;;;;;;;;1.40;1.40;;;;;;;;5059012;28;45296;-72
2022/05/21 15:26:18;;;;;;;;;2.25;0.00;;;;;;;;5052787;28;45256;-71
2022/05/21 15:28:44;;;;;;;;;3.25;1.50;;;;;;;;5059127;28;45464;-73
2022/05/21 15:31:10;;;;;;;;;1.80;1.20;;;;;;;;5050884;28;45674;-72
2022/05/21 15:33:35;;;;;;;;;1.00;1.00;;;;;;;;5051935;28;45327;-69
2022/05/21 15:36:02;;;;;;;;;3.00;1.75;;;;;;;;5052814;28;45358;-72